createdAt,value
2019-06-07T00:00:57.713Z,99.60
2019-06-07T00:06:03.218Z,99.60
2019-06-07T00:11:11.054Z,99.60
2019-06-07T00:16:19.879Z,99.60
2019-06-07T00:22:12.005Z,99.60
2019-06-07T00:26:32.931Z,99.60
2019-06-07T00:31:39.737Z,99.60
2019-06-07T00:36:46.749Z,99.60
2019-06-07T00:41:52.929Z,99.60
2019-06-07T00:47:00.003Z,99.60
2019-06-07T00:52:05.662Z,99.60
2019-06-07T00:57:12.416Z,99.60
2019-06-07T01:02:24.874Z,99.60
2019-06-07T01:07:26.921Z,99.60
2019-06-07T01:12:32.835Z,99.60
2019-06-07T01:17:50.151Z,99.60
2019-06-07T01:22:46.139Z,99.60
2019-06-07T01:27:51.778Z,99.60
2019-06-07T01:32:58.165Z,99.60
2019-06-07T01:38:03.733Z,99.60
2019-06-07T01:43:09.205Z,99.60
2019-06-07T01:48:17.669Z,99.60
2019-06-07T01:53:23.800Z,99.60
2019-06-07T01:58:30.252Z,99.60
2019-06-07T02:03:40.899Z,99.60
2019-06-07T02:08:47.635Z,99.60
2019-06-07T02:13:54.289Z,99.60
2019-06-07T02:19:02.241Z,99.60
2019-06-07T02:24:09.123Z,99.60
2019-06-07T02:29:14.614Z,99.60
2019-06-07T02:34:21.494Z,99.60
2019-06-07T02:39:30.809Z,99.60
2019-06-07T02:44:39.715Z,99.60
2019-06-07T02:49:44.622Z,99.60
2019-06-07T02:54:50.566Z,99.60
2019-06-07T03:00:07.558Z,99.60
2019-06-07T03:05:06.441Z,99.60
2019-06-07T03:10:12.730Z,99.60
2019-06-07T03:15:33.025Z,99.60
2019-06-07T03:20:27.612Z,99.60
2019-06-07T03:25:39.225Z,99.60
2019-06-07T03:31:00.946Z,99.60
2019-06-07T03:35:54.342Z,99.60
2019-06-07T03:41:00.173Z,99.60
2019-06-07T03:46:06.398Z,99.60
2019-06-07T03:51:24.586Z,99.60
2019-06-07T03:56:20.881Z,99.60
2019-06-07T04:01:28.593Z,99.60
2019-06-07T04:06:36.857Z,99.60
2019-06-07T04:11:42.222Z,99.60
2019-06-07T04:16:48.637Z,99.60
2019-06-07T04:21:55.430Z,99.60
2019-06-07T04:27:01.064Z,99.60
2019-06-07T04:32:07.308Z,99.60
2019-06-07T04:37:14.077Z,99.60
2019-06-07T04:42:21.525Z,99.60
2019-06-07T04:47:29.629Z,99.60
2019-06-07T04:52:42.760Z,99.60
2019-06-07T04:57:44.195Z,99.60
2019-06-07T05:02:49.867Z,99.60
2019-06-07T05:07:55.450Z,99.60
2019-06-07T05:13:01.861Z,99.60
2019-06-07T05:18:08.005Z,99.60
2019-06-07T05:23:59.105Z,99.60
2019-06-07T05:28:21.923Z,99.60
2019-06-07T05:33:27.504Z,99.60
2019-06-07T05:38:33.480Z,99.60
2019-06-07T05:43:44.656Z,99.60
2019-06-07T05:48:46.630Z,99.60
2019-06-07T05:53:52.379Z,99.60
2019-06-07T05:58:57.853Z,99.60
2019-06-07T06:04:03.534Z,99.60
2019-06-07T06:09:13.876Z,99.60
2019-06-07T06:14:18.167Z,99.60
2019-06-07T06:19:25.884Z,99.60
2019-06-07T06:24:31.729Z,99.60
2019-06-07T06:29:38.682Z,99.60
2019-06-07T06:34:49.337Z,99.60
2019-06-07T06:39:53.388Z,99.60
2019-06-07T06:45:00.671Z,99.60
2019-06-07T06:50:07.503Z,99.60
2019-06-07T06:55:13.329Z,99.60
2019-06-07T07:00:20.971Z,99.60
2019-06-07T07:05:26.712Z,99.60
2019-06-07T07:10:40.777Z,99.60
2019-06-07T07:15:49.980Z,99.60
2019-06-07T07:20:57.496Z,99.60
2019-06-07T07:26:02.785Z,99.60
2019-06-07T07:31:08.454Z,99.60
2019-06-07T07:36:35.652Z,99.60
2019-06-07T07:41:21.427Z,99.60
2019-06-07T07:46:29.836Z,99.60
2019-06-07T07:51:34.423Z,99.60
2019-06-07T07:56:40.092Z,99.60
2019-06-07T08:01:46.130Z,99.60
2019-06-07T08:06:54.226Z,99.60
2019-06-07T08:12:02.398Z,99.60
2019-06-07T08:17:09.508Z,99.60
2019-06-07T08:22:16.070Z,99.60
2019-06-07T08:27:26.490Z,99.60
2019-06-07T08:32:30.155Z,99.60
2019-06-07T08:43:02.921Z,99.60
2019-06-07T08:47:58.109Z,99.60
2019-06-07T08:53:11.458Z,99.60
2019-06-07T08:58:12.017Z,99.60
2019-06-07T09:03:18.410Z,99.60
2019-06-07T09:08:30.518Z,99.60
2019-06-07T09:13:33.343Z,99.60
2019-06-07T09:18:43.515Z,99.60
2019-06-07T09:23:47.607Z,99.60
2019-06-07T09:28:53.569Z,99.60
2019-06-07T09:34:04.758Z,99.60
2019-06-07T09:39:12.101Z,99.60
2019-06-07T09:44:25.075Z,99.60
2019-06-07T09:49:32.292Z,99.60
2019-06-07T09:55:04.066Z,99.60
2019-06-07T09:59:37.237Z,99.60
2019-06-07T10:04:43.117Z,99.60
2019-06-07T10:14:58.674Z,99.60
2019-06-07T10:20:05.876Z,99.60
2019-06-07T10:25:15.676Z,99.60
2019-06-07T10:30:21.474Z,99.60
2019-06-07T10:35:28.856Z,99.60
2019-06-07T10:40:34.666Z,99.60
2019-06-07T10:45:40.195Z,99.60
2019-06-07T10:50:46.195Z,99.00
2019-06-07T10:55:52.325Z,99.60
2019-06-07T11:00:59.288Z,99.40
2019-06-07T11:06:05.714Z,97.20
2019-06-07T11:11:12.216Z,96.00
2019-06-07T11:16:19.661Z,96.50
2019-06-07T11:21:26.959Z,95.20
2019-06-07T11:26:32.891Z,94.10
2019-06-07T11:31:40.411Z,94.70
2019-06-07T11:36:45.873Z,94.50
2019-06-07T11:41:51.445Z,92.70
2019-06-07T11:46:57.078Z,92.70
2019-06-07T11:52:04.063Z,90.50
2019-06-07T11:57:10.893Z,88.50
2019-06-07T12:02:17.665Z,87.40
2019-06-07T12:07:23.834Z,83.80
2019-06-07T12:12:30.959Z,81.80
2019-06-07T12:17:38.340Z,79.20
2019-06-07T12:22:43.774Z,74.20
2019-06-07T12:27:50.830Z,68.90
2019-06-07T12:32:57.094Z,64.60
2019-06-07T12:38:03.649Z,65.80
2019-06-07T12:43:09.979Z,65.90
2019-06-07T12:48:20.624Z,63.80
2019-06-07T12:53:28.068Z,69.40
2019-06-07T12:58:36.270Z,70.80
2019-06-07T13:03:39.800Z,68.50
2019-06-07T13:08:45.433Z,70.20
2019-06-07T13:13:51.324Z,70.80
2019-06-07T13:18:58.829Z,70.90
2019-06-07T13:24:04.578Z,65.90
2019-06-07T13:29:10.896Z,62.50
2019-06-07T13:34:18.119Z,61.80
2019-06-07T13:39:26.481Z,62.30
2019-06-07T13:44:32.062Z,61.90
2019-06-07T13:49:37.451Z,60.70
2019-06-07T13:54:42.979Z,59.00
2019-06-07T13:59:48.839Z,59.30
2019-06-07T14:04:55.309Z,61.30
2019-06-07T14:10:01.784Z,59.90
2019-06-07T14:15:08.266Z,60.10
2019-06-07T14:20:15.218Z,58.60
2019-06-07T14:25:23.065Z,59.00
2019-06-07T14:30:30.524Z,59.40
2019-06-07T14:35:36.518Z,57.60
2019-06-07T14:40:42.071Z,60.60
2019-06-07T14:45:48.106Z,58.50
2019-06-07T14:50:54.334Z,58.20
2019-06-07T14:56:00.482Z,57.00
2019-06-07T15:01:06.164Z,55.80
2019-06-07T15:06:12.369Z,57.00
2019-06-07T15:11:17.915Z,60.10
2019-06-07T15:16:24.278Z,62.80
2019-06-07T15:21:30.815Z,65.20
2019-06-07T15:26:36.649Z,67.70
2019-06-07T15:31:42.506Z,65.20
2019-06-07T15:36:49.768Z,61.70
2019-06-07T15:41:55.490Z,59.20
2019-06-07T15:47:01.426Z,55.80
2019-06-07T15:52:06.855Z,57.80
2019-06-07T15:57:12.356Z,59.90
2019-06-07T16:02:17.764Z,60.30
2019-06-07T16:07:25.604Z,60.10
2019-06-07T16:12:32.468Z,61.90
2019-06-07T16:17:42.138Z,62.50
2019-06-07T16:22:48.508Z,63.40
2019-06-07T16:27:55.339Z,65.80
2019-06-07T16:33:04.325Z,67.40
2019-06-07T16:38:11.612Z,67.30
2019-06-07T16:43:19.136Z,71.40
2019-06-07T16:48:26.767Z,76.70
2019-06-07T16:53:40.358Z,78.40
2019-06-07T16:58:46.539Z,79.10
2019-06-07T17:03:53.336Z,79.50
2019-06-07T17:08:59.275Z,79.60
2019-06-07T17:14:05.523Z,79.80
2019-06-07T17:19:10.984Z,80.00
2019-06-07T17:24:16.958Z,81.20
2019-06-07T17:29:22.637Z,82.80
2019-06-07T17:34:31.539Z,83.10
2019-06-07T17:39:43.438Z,80.20
2019-06-07T17:44:49.382Z,80.60
2019-06-07T17:49:58.984Z,81.50
2019-06-07T17:55:09.146Z,83.10
2019-06-07T18:00:34.315Z,84.60
2019-06-07T18:05:27.755Z,85.70
2019-06-07T18:10:37.997Z,86.70
2019-06-07T18:15:52.832Z,86.80
2019-06-07T18:20:55.984Z,87.50
2019-06-07T18:26:01.738Z,86.40
2019-06-07T18:31:09.105Z,85.10
2019-06-07T18:36:15.083Z,85.70
2019-06-07T18:41:20.528Z,87.10
2019-06-07T18:46:27.580Z,89.10
2019-06-07T18:51:35.776Z,91.80
2019-06-07T18:56:42.165Z,91.60
2019-06-07T19:01:49.964Z,92.40
2019-06-07T19:06:56.753Z,91.30
2019-06-07T19:12:02.530Z,92.30
2019-06-07T19:17:09.172Z,92.90
2019-06-07T19:22:18.056Z,93.00
2019-06-07T19:27:26.213Z,92.90
2019-06-07T19:32:34.585Z,93.50
2019-06-07T19:37:41.514Z,93.50
2019-06-07T19:42:47.634Z,93.40
2019-06-07T19:47:54.433Z,93.30
2019-06-07T19:53:04.064Z,93.40
2019-06-07T19:58:10.326Z,93.40
2019-06-07T20:03:20.092Z,93.40
2019-06-07T20:08:26.756Z,93.70
2019-06-07T20:13:34.819Z,93.70
2019-06-07T20:18:41.351Z,94.50
2019-06-07T20:23:49.344Z,93.90
2019-06-07T20:28:55.283Z,93.80
2019-06-07T20:34:05.810Z,94.40
2019-06-07T20:39:13.901Z,93.70
2019-06-07T20:44:24.144Z,94.30
2019-06-07T20:49:32.472Z,95.10
2019-06-07T20:54:41.994Z,96.30
2019-06-07T20:59:50.740Z,97.20
2019-06-07T21:04:57.471Z,97.10
2019-06-07T21:10:06.289Z,96.20
2019-06-07T21:15:14.651Z,94.30
2019-06-07T21:20:21.404Z,93.70
2019-06-07T21:25:28.820Z,94.20
2019-06-07T21:30:34.905Z,93.80
2019-06-07T21:35:41.017Z,94.20
2019-06-07T21:40:46.586Z,94.00
2019-06-07T21:46:04.725Z,93.90
2019-06-07T21:51:02.202Z,93.90
2019-06-07T21:56:09.091Z,94.20
2019-06-07T22:01:26.884Z,94.70
2019-06-07T22:06:33.098Z,95.50
2019-06-07T22:11:39.013Z,95.90
2019-06-07T22:16:44.784Z,95.70
2019-06-07T22:22:02.164Z,96.30
2019-06-07T22:27:00.120Z,97.00
2019-06-07T22:32:08.702Z,97.70
2019-06-07T22:37:18.135Z,97.00
2019-06-07T22:42:24.021Z,96.10
2019-06-07T22:47:30.661Z,96.10
2019-06-07T22:52:38.775Z,96.80
2019-06-07T22:57:58.533Z,98.10
2019-06-07T23:03:06.198Z,98.50
2019-06-07T23:08:12.954Z,98.90
2019-06-07T23:13:19.918Z,98.90
2019-06-07T23:18:26.798Z,99.00
2019-06-07T23:23:33.507Z,98.50
2019-06-07T23:28:40.609Z,97.70
2019-06-07T23:33:46.658Z,97.30
2019-06-07T23:38:52.062Z,96.10
2019-06-07T23:43:59.535Z,96.70
2019-06-07T23:49:05.032Z,96.60
2019-06-07T23:54:11.872Z,96.60
2019-06-07T23:59:20.171Z,95.90
